sensor_id;sensor_type;location;lat;lon;timestamp;P1;durP1;ratioP1;P2;durP2;ratioP2
1346;SDS011;667;48.796;9.480;2022-09-01T00:02:17;8.77;;;8.10;;
1346;SDS011;667;48.796;9.480;2022-09-01T00:04:43;10.80;;;9.97;;
1346;SDS011;667;48.796;9.480;2022-09-01T00:07:09;11.27;;;9.73;;
1346;SDS011;667;48.796;9.480;2022-09-01T00:09:37;9.93;;;9.07;;
1346;SDS011;667;48.796;9.480;2022-09-01T00:12:03;10.50;;;9.70;;
1346;SDS011;667;48.796;9.480;2022-09-01T00:14:32;12.27;;;9.10;;
1346;SDS011;667;48.796;9.480;2022-09-01T00:17:01;9.43;;;8.73;;
1346;SDS011;667;48.796;9.480;2022-09-01T00:19:29;10.37;;;9.30;;
1346;SDS011;667;48.796;9.480;2022-09-01T00:21:57;9.27;;;8.53;;
1346;SDS011;667;48.796;9.480;2022-09-01T00:24:24;10.37;;;9.47;;
1346;SDS011;667;48.796;9.480;2022-09-01T00:26:51;10.63;;;9.53;;
1346;SDS011;667;48.796;9.480;2022-09-01T00:29:17;10.80;;;9.70;;
1346;SDS011;667;48.796;9.480;2022-09-01T00:31:43;9.93;;;9.13;;
1346;SDS011;667;48.796;9.480;2022-09-01T00:34:08;10.23;;;9.23;;
1346;SDS011;667;48.796;9.480;2022-09-01T00:36:35;10.40;;;9.50;;
1346;SDS011;667;48.796;9.480;2022-09-01T00:39:00;11.17;;;10.07;;
1346;SDS011;667;48.796;9.480;2022-09-01T00:41:27;10.13;;;9.30;;
1346;SDS011;667;48.796;9.480;2022-09-01T00:43:57;10.80;;;9.70;;
1346;SDS011;667;48.796;9.480;2022-09-01T00:47:03;11.33;;;10.13;;
1346;SDS011;667;48.796;9.480;2022-09-01T00:51:58;11.20;;;10.30;;
1346;SDS011;667;48.796;9.480;2022-09-01T00:54:30;11.17;;;10.20;;
1346;SDS011;667;48.796;9.480;2022-09-01T00:56:57;9.20;;;8.50;;
1346;SDS011;667;48.796;9.480;2022-09-01T00:59:24;11.23;;;10.23;;
1346;SDS011;667;48.796;9.480;2022-09-01T01:01:51;11.50;;;10.00;;
1346;SDS011;667;48.796;9.480;2022-09-01T01:04:17;11.00;;;10.03;;
1346;SDS011;667;48.796;9.480;2022-09-01T01:06:44;11.90;;;10.97;;
1346;SDS011;667;48.796;9.480;2022-09-01T01:09:14;12.47;;;10.03;;
1346;SDS011;667;48.796;9.480;2022-09-01T01:11:41;10.27;;;9.37;;
1346;SDS011;667;48.796;9.480;2022-09-01T01:14:11;11.70;;;10.50;;
1346;SDS011;667;48.796;9.480;2022-09-01T01:16:40;10.63;;;9.60;;
1346;SDS011;667;48.796;9.480;2022-09-01T01:25:14;10.20;;;9.30;;
1346;SDS011;667;48.796;9.480;2022-09-01T01:27:42;10.90;;;10.00;;
1346;SDS011;667;48.796;9.480;2022-09-01T01:30:09;10.97;;;9.97;;
1346;SDS011;667;48.796;9.480;2022-09-01T01:32:37;11.63;;;10.53;;
1346;SDS011;667;48.796;9.480;2022-09-01T01:35:07;10.63;;;9.73;;
1346;SDS011;667;48.796;9.480;2022-09-01T01:37:38;12.37;;;10.60;;
1346;SDS011;667;48.796;9.480;2022-09-01T01:40:08;10.90;;;10.00;;
1346;SDS011;667;48.796;9.480;2022-09-01T01:42:39;11.40;;;10.30;;
1346;SDS011;667;48.796;9.480;2022-09-01T01:45:10;10.43;;;9.40;;
1346;SDS011;667;48.796;9.480;2022-09-01T01:47:37;10.57;;;9.63;;
1346;SDS011;667;48.796;9.480;2022-09-01T01:50:03;10.87;;;9.73;;
1346;SDS011;667;48.796;9.480;2022-09-01T01:52:33;10.50;;;9.60;;
1346;SDS011;667;48.796;9.480;2022-09-01T01:54:59;10.83;;;9.93;;
1346;SDS011;667;48.796;9.480;2022-09-01T01:57:25;10.77;;;9.83;;
1346;SDS011;667;48.796;9.480;2022-09-01T01:59:55;11.00;;;10.00;;
1346;SDS011;667;48.796;9.480;2022-09-01T02:02:21;10.00;;;9.10;;
1346;SDS011;667;48.796;9.480;2022-09-01T02:04:48;10.33;;;9.43;;
1346;SDS011;667;48.796;9.480;2022-09-01T02:07:13;9.80;;;9.00;;
1346;SDS011;667;48.796;9.480;2022-09-01T02:09:39;10.70;;;9.73;;
1346;SDS011;667;48.796;9.480;2022-09-01T02:12:08;10.50;;;9.50;;
1346;SDS011;667;48.796;9.480;2022-09-01T02:14:34;9.97;;;9.07;;
1346;SDS011;667;48.796;9.480;2022-09-01T02:17:00;9.80;;;8.90;;
1346;SDS011;667;48.796;9.480;2022-09-01T02:19:25;9.83;;;8.77;;
1346;SDS011;667;48.796;9.480;2022-09-01T02:21:51;10.43;;;9.53;;
1346;SDS011;667;48.796;9.480;2022-09-01T02:24:20;11.37;;;10.43;;
1346;SDS011;667;48.796;9.480;2022-09-01T02:26:50;10.47;;;9.57;;
1346;SDS011;667;48.796;9.480;2022-09-01T02:29:18;11.60;;;10.47;;
1346;SDS011;667;48.796;9.480;2022-09-01T02:31:48;10.50;;;9.50;;
1346;SDS011;667;48.796;9.480;2022-09-01T02:34:15;10.13;;;9.13;;
1346;SDS011;667;48.796;9.480;2022-09-01T02:36:46;10.77;;;9.87;;
1346;SDS011;667;48.796;9.480;2022-09-01T02:39:14;9.80;;;8.97;;
1346;SDS011;667;48.796;9.480;2022-09-01T02:41:44;10.50;;;9.60;;
1346;SDS011;667;48.796;9.480;2022-09-01T02:44:10;10.33;;;9.40;;
1346;SDS011;667;48.796;9.480;2022-09-01T02:46:37;10.07;;;9.07;;
1346;SDS011;667;48.796;9.480;2022-09-01T02:49:06;9.83;;;9.03;;
1346;SDS011;667;48.796;9.480;2022-09-01T02:51:39;10.87;;;9.77;;
1346;SDS011;667;48.796;9.480;2022-09-01T02:54:07;10.20;;;9.20;;
1346;SDS011;667;48.796;9.480;2022-09-01T02:56:32;11.97;;;9.70;;
1346;SDS011;667;48.796;9.480;2022-09-01T02:58:58;10.63;;;9.60;;
1346;SDS011;667;48.796;9.480;2022-09-01T03:01:30;9.77;;;8.97;;
1346;SDS011;667;48.796;9.480;2022-09-01T03:04:01;10.53;;;9.47;;
1346;SDS011;667;48.796;9.480;2022-09-01T03:06:29;9.60;;;8.77;;
1346;SDS011;667;48.796;9.480;2022-09-01T03:08:58;9.90;;;9.10;;
1346;SDS011;667;48.796;9.480;2022-09-01T03:11:25;10.53;;;9.50;;
1346;SDS011;667;48.796;9.480;2022-09-01T03:13:52;10.63;;;9.63;;
1346;SDS011;667;48.796;9.480;2022-09-01T03:16:18;10.07;;;9.17;;
1346;SDS011;667;48.796;9.480;2022-09-01T03:18:46;10.13;;;9.33;;
1346;SDS011;667;48.796;9.480;2022-09-01T03:21:11;11.07;;;10.17;;
1346;SDS011;667;48.796;9.480;2022-09-01T03:23:41;11.07;;;9.73;;
1346;SDS011;667;48.796;9.480;2022-09-01T03:26:11;11.07;;;9.70;;
1346;SDS011;667;48.796;9.480;2022-09-01T03:28:38;9.97;;;9.10;;
1346;SDS011;667;48.796;9.480;2022-09-01T03:31:03;11.23;;;10.20;;
1346;SDS011;667;48.796;9.480;2022-09-01T03:33:30;10.70;;;9.70;;
1346;SDS011;667;48.796;9.480;2022-09-01T03:35:56;11.30;;;10.40;;
1346;SDS011;667;48.796;9.480;2022-09-01T03:38:22;11.03;;;9.93;;
1346;SDS011;667;48.796;9.480;2022-09-01T03:40:49;10.53;;;9.63;;
1346;SDS011;667;48.796;9.480;2022-09-01T03:43:17;10.70;;;9.80;;
1346;SDS011;667;48.796;9.480;2022-09-01T03:45:47;9.73;;;8.93;;
1346;SDS011;667;48.796;9.480;2022-09-01T03:48:12;10.90;;;9.90;;
1346;SDS011;667;48.796;9.480;2022-09-01T03:50:40;9.87;;;8.97;;
1346;SDS011;667;48.796;9.480;2022-09-01T03:53:16;10.70;;;9.80;;
1346;SDS011;667;48.796;9.480;2022-09-01T03:55:44;9.53;;;8.73;;
1346;SDS011;667;48.796;9.480;2022-09-01T03:58:12;10.53;;;9.70;;
1346;SDS011;667;48.796;9.480;2022-09-01T04:00:43;10.10;;;9.20;;
1346;SDS011;667;48.796;9.480;2022-09-01T04:03:13;10.83;;;9.93;;
1346;SDS011;667;48.796;9.480;2022-09-01T04:05:45;18.63;;;9.37;;
1346;SDS011;667;48.796;9.480;2022-09-01T04:08:12;9.17;;;8.37;;
1346;SDS011;667;48.796;9.480;2022-09-01T04:10:48;9.93;;;9.03;;
1346;SDS011;667;48.796;9.480;2022-09-01T04:13:16;9.50;;;8.60;;
1346;SDS011;667;48.796;9.480;2022-09-01T04:15:44;9.83;;;8.93;;
1346;SDS011;667;48.796;9.480;2022-09-01T04:18:10;10.93;;;9.93;;
1346;SDS011;667;48.796;9.480;2022-09-01T04:20:44;11.47;;;10.40;;
1346;SDS011;667;48.796;9.480;2022-09-01T04:23:19;11.10;;;10.10;;
1346;SDS011;667;48.796;9.480;2022-09-01T04:25:54;10.83;;;9.93;;
1346;SDS011;667;48.796;9.480;2022-09-01T04:28:32;10.13;;;9.23;;
1346;SDS011;667;48.796;9.480;2022-09-01T04:31:04;12.03;;;10.90;;
1346;SDS011;667;48.796;9.480;2022-09-01T04:33:33;11.73;;;10.53;;
1346;SDS011;667;48.796;9.480;2022-09-01T04:36:03;12.03;;;10.50;;
1346;SDS011;667;48.796;9.480;2022-09-01T04:38:30;11.47;;;10.40;;
1346;SDS011;667;48.796;9.480;2022-09-01T04:41:01;11.30;;;10.40;;
1346;SDS011;667;48.796;9.480;2022-09-01T04:43:28;11.93;;;10.77;;
1346;SDS011;667;48.796;9.480;2022-09-01T04:45:53;12.50;;;11.20;;
1346;SDS011;667;48.796;9.480;2022-09-01T04:48:20;11.10;;;10.00;;
1346;SDS011;667;48.796;9.480;2022-09-01T04:50:47;11.40;;;10.50;;
1346;SDS011;667;48.796;9.480;2022-09-01T04:53:13;11.77;;;10.73;;
1346;SDS011;667;48.796;9.480;2022-09-01T04:55:40;11.43;;;10.43;;
1346;SDS011;667;48.796;9.480;2022-09-01T04:58:09;10.87;;;10.00;;
1346;SDS011;667;48.796;9.480;2022-09-01T05:00:37;12.67;;;11.30;;
1346;SDS011;667;48.796;9.480;2022-09-01T05:03:04;12.20;;;10.77;;
1346;SDS011;667;48.796;9.480;2022-09-01T05:08:03;11.57;;;10.60;;
1346;SDS011;667;48.796;9.480;2022-09-01T05:10:30;11.53;;;10.50;;
1346;SDS011;667;48.796;9.480;2022-09-01T05:12:58;12.20;;;11.10;;
1346;SDS011;667;48.796;9.480;2022-09-01T05:15:25;12.90;;;11.50;;
1346;SDS011;667;48.796;9.480;2022-09-01T05:17:51;13.70;;;11.33;;
1346;SDS011;667;48.796;9.480;2022-09-01T05:20:16;13.27;;;12.03;;
1346;SDS011;667;48.796;9.480;2022-09-01T05:22:44;13.90;;;12.60;;
1346;SDS011;667;48.796;9.480;2022-09-01T05:25:10;12.33;;;11.33;;
1346;SDS011;667;48.796;9.480;2022-09-01T05:27:38;12.63;;;11.40;;
1346;SDS011;667;48.796;9.480;2022-09-01T05:30:05;14.27;;;12.97;;
1346;SDS011;667;48.796;9.480;2022-09-01T05:32:33;14.17;;;12.77;;
1346;SDS011;667;48.796;9.480;2022-09-01T05:35:01;13.87;;;12.63;;
1346;SDS011;667;48.796;9.480;2022-09-01T05:37:32;13.10;;;11.90;;
1346;SDS011;667;48.796;9.480;2022-09-01T05:40:06;14.73;;;13.20;;
1346;SDS011;667;48.796;9.480;2022-09-01T05:42:33;14.30;;;12.90;;
1346;SDS011;667;48.796;9.480;2022-09-01T05:45:03;14.37;;;12.97;;
1346;SDS011;667;48.796;9.480;2022-09-01T05:47:29;15.13;;;13.70;;
1346;SDS011;667;48.796;9.480;2022-09-01T05:49:54;14.17;;;12.87;;
1346;SDS011;667;48.796;9.480;2022-09-01T05:52:20;13.80;;;12.40;;
1346;SDS011;667;48.796;9.480;2022-09-01T05:54:48;14.40;;;13.10;;
1346;SDS011;667;48.796;9.480;2022-09-01T05:57:16;14.20;;;12.90;;
1346;SDS011;667;48.796;9.480;2022-09-01T05:59:43;15.57;;;14.00;;
1346;SDS011;667;48.796;9.480;2022-09-01T06:02:09;15.00;;;13.60;;
1346;SDS011;667;48.796;9.480;2022-09-01T06:04:36;15.33;;;13.70;;
1346;SDS011;667;48.796;9.480;2022-09-01T06:07:10;15.67;;;14.10;;
1346;SDS011;667;48.796;9.480;2022-09-01T06:09:39;15.77;;;14.17;;
1346;SDS011;667;48.796;9.480;2022-09-01T06:12:07;14.07;;;12.77;;
1346;SDS011;667;48.796;9.480;2022-09-01T06:14:41;15.53;;;14.13;;
1346;SDS011;667;48.796;9.480;2022-09-01T06:17:07;14.20;;;12.90;;
1346;SDS011;667;48.796;9.480;2022-09-01T06:19:34;16.07;;;14.60;;
1346;SDS011;667;48.796;9.480;2022-09-01T06:22:00;15.77;;;14.33;;
1346;SDS011;667;48.796;9.480;2022-09-01T06:24:26;17.03;;;15.43;;
1346;SDS011;667;48.796;9.480;2022-09-01T06:26:52;16.70;;;15.20;;
1346;SDS011;667;48.796;9.480;2022-09-01T06:29:18;19.13;;;17.27;;
1346;SDS011;667;48.796;9.480;2022-09-01T06:31:45;16.70;;;15.10;;
1346;SDS011;667;48.796;9.480;2022-09-01T06:34:15;18.10;;;16.20;;
1346;SDS011;667;48.796;9.480;2022-09-01T06:36:42;17.97;;;16.37;;
1346;SDS011;667;48.796;9.480;2022-09-01T06:39:09;18.40;;;16.40;;
1346;SDS011;667;48.796;9.480;2022-09-01T06:41:43;18.90;;;17.10;;
1346;SDS011;667;48.796;9.480;2022-09-01T06:44:12;18.60;;;16.80;;
1346;SDS011;667;48.796;9.480;2022-09-01T06:46:38;18.00;;;16.30;;
1346;SDS011;667;48.796;9.480;2022-09-01T06:49:04;18.43;;;16.53;;
1346;SDS011;667;48.796;9.480;2022-09-01T06:51:30;17.40;;;15.70;;
1346;SDS011;667;48.796;9.480;2022-09-01T06:53:55;19.70;;;17.70;;
1346;SDS011;667;48.796;9.480;2022-09-01T06:56:23;18.60;;;16.80;;
1346;SDS011;667;48.796;9.480;2022-09-01T06:58:52;17.37;;;15.57;;
1346;SDS011;667;48.796;9.480;2022-09-01T07:01:19;18.07;;;16.40;;
1346;SDS011;667;48.796;9.480;2022-09-01T07:03:46;18.23;;;16.00;;
1346;SDS011;667;48.796;9.480;2022-09-01T07:06:15;16.00;;;14.50;;
1346;SDS011;667;48.796;9.480;2022-09-01T07:08:41;16.83;;;15.23;;
1346;SDS011;667;48.796;9.480;2022-09-01T07:11:15;16.63;;;15.10;;
1346;SDS011;667;48.796;9.480;2022-09-01T07:13:48;16.00;;;14.53;;
1346;SDS011;667;48.796;9.480;2022-09-01T07:16:18;16.97;;;15.27;;
1346;SDS011;667;48.796;9.480;2022-09-01T07:18:47;17.37;;;15.67;;
1346;SDS011;667;48.796;9.480;2022-09-01T07:21:13;15.60;;;14.20;;
1346;SDS011;667;48.796;9.480;2022-09-01T07:23:39;18.70;;;16.90;;
1346;SDS011;667;48.796;9.480;2022-09-01T07:26:07;15.87;;;14.37;;
1346;SDS011;667;48.796;9.480;2022-09-01T07:28:34;17.97;;;16.27;;
1346;SDS011;667;48.796;9.480;2022-09-01T07:31:00;17.03;;;15.33;;
1346;SDS011;667;48.796;9.480;2022-09-01T07:33:28;16.57;;;15.00;;
1346;SDS011;667;48.796;9.480;2022-09-01T07:35:55;15.23;;;13.73;;
1346;SDS011;667;48.796;9.480;2022-09-01T07:38:22;15.83;;;14.27;;
1346;SDS011;667;48.796;9.480;2022-09-01T07:40:49;15.27;;;13.83;;
1346;SDS011;667;48.796;9.480;2022-09-01T07:43:24;14.43;;;12.93;;
1346;SDS011;667;48.796;9.480;2022-09-01T07:45:53;14.73;;;13.43;;
1346;SDS011;667;48.796;9.480;2022-09-01T07:48:22;14.23;;;12.83;;
1346;SDS011;667;48.796;9.480;2022-09-01T07:50:50;14.40;;;13.10;;
1346;SDS011;667;48.796;9.480;2022-09-01T07:53:21;13.57;;;12.37;;
1346;SDS011;667;48.796;9.480;2022-09-01T07:55:50;12.80;;;11.60;;
1346;SDS011;667;48.796;9.480;2022-09-01T07:58:18;14.50;;;12.60;;
1346;SDS011;667;48.796;9.480;2022-09-01T08:00:46;12.37;;;11.17;;
1346;SDS011;667;48.796;9.480;2022-09-01T08:03:13;13.40;;;12.20;;
1346;SDS011;667;48.796;9.480;2022-09-01T08:05:39;12.23;;;11.13;;
1346;SDS011;667;48.796;9.480;2022-09-01T08:08:05;78.97;;;16.57;;
1346;SDS011;667;48.796;9.480;2022-09-01T08:10:31;12.00;;;10.87;;
1346;SDS011;667;48.796;9.480;2022-09-01T08:12:56;13.47;;;12.03;;
1346;SDS011;667;48.796;9.480;2022-09-01T08:15:23;12.40;;;11.23;;
1346;SDS011;667;48.796;9.480;2022-09-01T08:17:49;10.30;;;9.40;;
1346;SDS011;667;48.796;9.480;2022-09-01T08:20:14;15.73;;;10.30;;
1346;SDS011;667;48.796;9.480;2022-09-01T08:22:40;10.27;;;9.37;;
1346;SDS011;667;48.796;9.480;2022-09-01T08:25:06;10.63;;;9.53;;
1346;SDS011;667;48.796;9.480;2022-09-01T08:27:33;9.77;;;8.87;;
1346;SDS011;667;48.796;9.480;2022-09-01T08:30:07;10.57;;;9.67;;
1346;SDS011;667;48.796;9.480;2022-09-01T08:32:36;10.20;;;9.30;;
1346;SDS011;667;48.796;9.480;2022-09-01T08:35:06;8.50;;;7.73;;
1346;SDS011;667;48.796;9.480;2022-09-01T08:37:33;8.40;;;7.60;;
1346;SDS011;667;48.796;9.480;2022-09-01T08:39:59;8.40;;;7.70;;
1346;SDS011;667;48.796;9.480;2022-09-01T08:42:41;8.30;;;7.60;;
1346;SDS011;667;48.796;9.480;2022-09-01T08:45:12;8.17;;;7.50;;
1346;SDS011;667;48.796;9.480;2022-09-01T08:47:46;10.40;;;7.60;;
1346;SDS011;667;48.796;9.480;2022-09-01T08:50:12;8.23;;;7.60;;
1346;SDS011;667;48.796;9.480;2022-09-01T08:52:40;7.87;;;7.33;;
1346;SDS011;667;48.796;9.480;2022-09-01T08:57:45;9.53;;;8.73;;
1346;SDS011;667;48.796;9.480;2022-09-01T09:00:16;9.23;;;8.23;;
1346;SDS011;667;48.796;9.480;2022-09-01T09:02:49;8.40;;;7.70;;
1346;SDS011;667;48.796;9.480;2022-09-01T09:16:14;8.10;;;7.40;;
1346;SDS011;667;48.796;9.480;2022-09-01T09:18:57;7.57;;;6.97;;
1346;SDS011;667;48.796;9.480;2022-09-01T09:21:36;7.50;;;6.87;;
1346;SDS011;667;48.796;9.480;2022-09-01T09:26:56;7.83;;;7.13;;
1346;SDS011;667;48.796;9.480;2022-09-01T09:29:23;7.90;;;7.30;;
1346;SDS011;667;48.796;9.480;2022-09-01T09:32:00;7.83;;;7.20;;
1346;SDS011;667;48.796;9.480;2022-09-01T09:34:35;7.03;;;6.43;;
1346;SDS011;667;48.796;9.480;2022-09-01T09:42:34;7.30;;;6.70;;
1346;SDS011;667;48.796;9.480;2022-09-01T09:45:04;6.57;;;6.07;;
1346;SDS011;667;48.796;9.480;2022-09-01T09:47:47;7.10;;;6.50;;
1346;SDS011;667;48.796;9.480;2022-09-01T09:55:35;7.20;;;6.57;;
1346;SDS011;667;48.796;9.480;2022-09-01T09:58:13;7.07;;;6.57;;
1346;SDS011;667;48.796;9.480;2022-09-01T10:00:39;6.27;;;5.83;;
1346;SDS011;667;48.796;9.480;2022-09-01T10:03:30;6.77;;;6.27;;
1346;SDS011;667;48.796;9.480;2022-09-01T10:06:00;7.10;;;6.50;;
1346;SDS011;667;48.796;9.480;2022-09-01T10:10:52;6.37;;;5.87;;
1346;SDS011;667;48.796;9.480;2022-09-01T10:13:20;6.70;;;6.20;;
1346;SDS011;667;48.796;9.480;2022-09-01T10:15:49;6.47;;;6.00;;
1346;SDS011;667;48.796;9.480;2022-09-01T10:18:20;7.60;;;6.90;;
1346;SDS011;667;48.796;9.480;2022-09-01T10:20:50;6.83;;;6.30;;
1346;SDS011;667;48.796;9.480;2022-09-01T10:23:20;7.27;;;6.67;;
1346;SDS011;667;48.796;9.480;2022-09-01T10:25:46;6.90;;;6.30;;
1346;SDS011;667;48.796;9.480;2022-09-01T10:28:15;6.77;;;6.27;;
1346;SDS011;667;48.796;9.480;2022-09-01T10:30:48;7.13;;;6.60;;
1346;SDS011;667;48.796;9.480;2022-09-01T10:33:17;6.53;;;6.03;;
1346;SDS011;667;48.796;9.480;2022-09-01T10:35:45;6.30;;;5.80;;
1346;SDS011;667;48.796;9.480;2022-09-01T10:38:17;6.50;;;6.00;;
1346;SDS011;667;48.796;9.480;2022-09-01T10:40:48;6.57;;;6.17;;
1346;SDS011;667;48.796;9.480;2022-09-01T10:46:00;7.47;;;6.87;;
1346;SDS011;667;48.796;9.480;2022-09-01T10:48:44;6.30;;;5.80;;
1346;SDS011;667;48.796;9.480;2022-09-01T10:59:08;7.43;;;6.80;;
1346;SDS011;667;48.796;9.480;2022-09-01T11:04:16;6.77;;;6.17;;
1346;SDS011;667;48.796;9.480;2022-09-01T11:09:17;8.23;;;6.40;;
1346;SDS011;667;48.796;9.480;2022-09-01T11:14:52;6.93;;;6.27;;
1346;SDS011;667;48.796;9.480;2022-09-01T11:47:48;5.67;;;5.17;;
1346;SDS011;667;48.796;9.480;2022-09-01T11:52:50;7.47;;;6.70;;
1346;SDS011;667;48.796;9.480;2022-09-01T11:55:43;6.20;;;5.77;;
1346;SDS011;667;48.796;9.480;2022-09-01T11:58:11;6.87;;;6.37;;
1346;SDS011;667;48.796;9.480;2022-09-01T12:00:40;6.40;;;5.90;;
1346;SDS011;667;48.796;9.480;2022-09-01T12:03:22;6.33;;;5.83;;
1346;SDS011;667;48.796;9.480;2022-09-01T12:06:00;6.60;;;6.10;;
1346;SDS011;667;48.796;9.480;2022-09-01T12:08:32;7.20;;;6.60;;
1346;SDS011;667;48.796;9.480;2022-09-01T12:13:29;7.60;;;7.10;;
1346;SDS011;667;48.796;9.480;2022-09-01T12:16:00;7.40;;;6.90;;
1346;SDS011;667;48.796;9.480;2022-09-01T12:18:33;8.23;;;7.00;;
1346;SDS011;667;48.796;9.480;2022-09-01T12:21:16;6.73;;;6.27;;
1346;SDS011;667;48.796;9.480;2022-09-01T12:23:49;6.40;;;6.00;;
1346;SDS011;667;48.796;9.480;2022-09-01T12:26:20;7.80;;;7.20;;
1346;SDS011;667;48.796;9.480;2022-09-01T12:28:50;7.40;;;6.90;;
1346;SDS011;667;48.796;9.480;2022-09-01T12:31:21;7.60;;;6.90;;
1346;SDS011;667;48.796;9.480;2022-09-01T12:33:48;7.80;;;7.30;;
1346;SDS011;667;48.796;9.480;2022-09-01T12:36:26;6.73;;;6.20;;
1346;SDS011;667;48.796;9.480;2022-09-01T12:38:55;7.27;;;6.57;;
1346;SDS011;667;48.796;9.480;2022-09-01T12:41:41;6.97;;;6.23;;
1346;SDS011;667;48.796;9.480;2022-09-01T12:46:51;5.80;;;5.40;;
1346;SDS011;667;48.796;9.480;2022-09-01T12:49:24;7.30;;;6.70;;
1346;SDS011;667;48.796;9.480;2022-09-01T12:54:40;6.60;;;6.00;;
1346;SDS011;667;48.796;9.480;2022-09-01T12:57:06;6.20;;;5.80;;
1346;SDS011;667;48.796;9.480;2022-09-01T12:59:32;5.90;;;5.50;;
1346;SDS011;667;48.796;9.480;2022-09-01T13:02:24;6.10;;;5.70;;
1346;SDS011;667;48.796;9.480;2022-09-01T13:04:50;5.80;;;5.40;;
1346;SDS011;667;48.796;9.480;2022-09-01T13:07:16;6.13;;;5.70;;
1346;SDS011;667;48.796;9.480;2022-09-01T13:09:41;6.70;;;6.20;;
1346;SDS011;667;48.796;9.480;2022-09-01T13:12:10;7.07;;;6.47;;
1346;SDS011;667;48.796;9.480;2022-09-01T13:14:41;7.87;;;7.30;;
1346;SDS011;667;48.796;9.480;2022-09-01T13:17:06;6.20;;;5.80;;
1346;SDS011;667;48.796;9.480;2022-09-01T13:19:32;6.13;;;5.73;;
1346;SDS011;667;48.796;9.480;2022-09-01T13:21:58;7.93;;;6.07;;
1346;SDS011;667;48.796;9.480;2022-09-01T13:24:23;5.93;;;5.53;;
1346;SDS011;667;48.796;9.480;2022-09-01T13:26:49;7.70;;;6.00;;
1346;SDS011;667;48.796;9.480;2022-09-01T13:29:21;6.83;;;6.13;;
1346;SDS011;667;48.796;9.480;2022-09-01T13:31:47;6.73;;;6.17;;
1346;SDS011;667;48.796;9.480;2022-09-01T13:34:13;5.90;;;5.40;;
1346;SDS011;667;48.796;9.480;2022-09-01T13:36:39;6.40;;;5.80;;
1346;SDS011;667;48.796;9.480;2022-09-01T13:39:05;6.07;;;5.63;;
1346;SDS011;667;48.796;9.480;2022-09-01T13:41:30;5.30;;;4.90;;
1346;SDS011;667;48.796;9.480;2022-09-01T13:43:56;6.47;;;5.77;;
1346;SDS011;667;48.796;9.480;2022-09-01T13:46:22;5.90;;;5.40;;
1346;SDS011;667;48.796;9.480;2022-09-01T13:48:47;6.23;;;5.63;;
1346;SDS011;667;48.796;9.480;2022-09-01T13:51:22;5.80;;;5.43;;
1346;SDS011;667;48.796;9.480;2022-09-01T13:53:50;5.00;;;4.60;;
1346;SDS011;667;48.796;9.480;2022-09-01T13:56:16;5.60;;;5.20;;
1346;SDS011;667;48.796;9.480;2022-09-01T13:58:42;4.93;;;4.63;;
1346;SDS011;667;48.796;9.480;2022-09-01T14:01:07;5.27;;;4.90;;
1346;SDS011;667;48.796;9.480;2022-09-01T14:03:33;5.60;;;5.20;;
1346;SDS011;667;48.796;9.480;2022-09-01T14:05:58;5.73;;;5.33;;
1346;SDS011;667;48.796;9.480;2022-09-01T14:08:24;5.70;;;5.30;;
1346;SDS011;667;48.796;9.480;2022-09-01T14:10:50;6.00;;;5.50;;
1346;SDS011;667;48.796;9.480;2022-09-01T14:13:18;5.40;;;5.00;;
1346;SDS011;667;48.796;9.480;2022-09-01T14:15:45;5.10;;;4.80;;
1346;SDS011;667;48.796;9.480;2022-09-01T14:18:11;5.60;;;5.20;;
1346;SDS011;667;48.796;9.480;2022-09-01T14:20:38;5.27;;;4.87;;
1346;SDS011;667;48.796;9.480;2022-09-01T14:23:09;5.23;;;4.93;;
1346;SDS011;667;48.796;9.480;2022-09-01T14:25:35;4.47;;;4.17;;
1346;SDS011;667;48.796;9.480;2022-09-01T14:28:02;4.53;;;4.23;;
1346;SDS011;667;48.796;9.480;2022-09-01T14:30:29;4.17;;;3.87;;
1346;SDS011;667;48.796;9.480;2022-09-01T14:32:56;5.03;;;4.73;;
1346;SDS011;667;48.796;9.480;2022-09-01T14:35:23;4.93;;;4.53;;
1346;SDS011;667;48.796;9.480;2022-09-01T14:37:50;7.60;;;5.50;;
1346;SDS011;667;48.796;9.480;2022-09-01T14:40:17;8.20;;;5.30;;
1346;SDS011;667;48.796;9.480;2022-09-01T14:42:45;5.40;;;5.00;;
1346;SDS011;667;48.796;9.480;2022-09-01T14:45:13;5.20;;;4.90;;
1346;SDS011;667;48.796;9.480;2022-09-01T14:47:42;5.10;;;4.70;;
1346;SDS011;667;48.796;9.480;2022-09-01T14:50:08;5.50;;;5.10;;
1346;SDS011;667;48.796;9.480;2022-09-01T14:52:34;4.93;;;4.63;;
1346;SDS011;667;48.796;9.480;2022-09-01T14:55:01;5.03;;;4.53;;
1346;SDS011;667;48.796;9.480;2022-09-01T14:57:28;5.10;;;4.80;;
1346;SDS011;667;48.796;9.480;2022-09-01T14:59:57;4.67;;;4.37;;
1346;SDS011;667;48.796;9.480;2022-09-01T15:02:23;5.40;;;5.00;;
1346;SDS011;667;48.796;9.480;2022-09-01T15:04:50;5.23;;;4.80;;
1346;SDS011;667;48.796;9.480;2022-09-01T15:07:16;4.97;;;4.57;;
1346;SDS011;667;48.796;9.480;2022-09-01T15:09:42;4.60;;;4.30;;
1346;SDS011;667;48.796;9.480;2022-09-01T15:12:07;4.50;;;4.30;;
1346;SDS011;667;48.796;9.480;2022-09-01T15:14:33;5.03;;;4.73;;
1346;SDS011;667;48.796;9.480;2022-09-01T15:17:00;5.07;;;4.77;;
1346;SDS011;667;48.796;9.480;2022-09-01T15:19:25;4.87;;;4.53;;
1346;SDS011;667;48.796;9.480;2022-09-01T15:21:51;4.70;;;4.40;;
1346;SDS011;667;48.796;9.480;2022-09-01T15:24:17;4.83;;;4.43;;
1346;SDS011;667;48.796;9.480;2022-09-01T15:26:43;5.00;;;4.67;;
1346;SDS011;667;48.796;9.480;2022-09-01T15:29:10;5.07;;;4.77;;
1346;SDS011;667;48.796;9.480;2022-09-01T15:31:37;5.37;;;4.93;;
1346;SDS011;667;48.796;9.480;2022-09-01T15:34:04;5.20;;;4.90;;
1346;SDS011;667;48.796;9.480;2022-09-01T15:36:30;5.20;;;4.90;;
1346;SDS011;667;48.796;9.480;2022-09-01T15:38:59;5.30;;;4.90;;
1346;SDS011;667;48.796;9.480;2022-09-01T15:41:26;5.40;;;5.10;;
1346;SDS011;667;48.796;9.480;2022-09-01T15:43:55;5.17;;;4.87;;
1346;SDS011;667;48.796;9.480;2022-09-01T15:46:21;6.13;;;5.73;;
1346;SDS011;667;48.796;9.480;2022-09-01T15:48:47;6.30;;;5.90;;
1346;SDS011;667;48.796;9.480;2022-09-01T15:53:47;4.97;;;4.67;;
1346;SDS011;667;48.796;9.480;2022-09-01T15:56:14;5.30;;;5.00;;
1346;SDS011;667;48.796;9.480;2022-09-01T15:58:42;7.43;;;4.87;;
1346;SDS011;667;48.796;9.480;2022-09-01T16:01:12;5.63;;;5.20;;
1346;SDS011;667;48.796;9.480;2022-09-01T16:03:38;5.57;;;5.17;;
1346;SDS011;667;48.796;9.480;2022-09-01T16:06:04;5.50;;;5.10;;
1346;SDS011;667;48.796;9.480;2022-09-01T16:08:30;5.60;;;5.20;;
1346;SDS011;667;48.796;9.480;2022-09-01T16:10:57;6.30;;;5.90;;
1346;SDS011;667;48.796;9.480;2022-09-01T16:13:23;7.40;;;6.80;;
1346;SDS011;667;48.796;9.480;2022-09-01T16:15:50;6.50;;;6.00;;
1346;SDS011;667;48.796;9.480;2022-09-01T16:18:30;7.20;;;6.70;;
1346;SDS011;667;48.796;9.480;2022-09-01T16:23:50;6.13;;;5.73;;
1346;SDS011;667;48.796;9.480;2022-09-01T16:26:17;6.60;;;6.03;;
1346;SDS011;667;48.796;9.480;2022-09-01T16:28:46;6.53;;;5.93;;
1346;SDS011;667;48.796;9.480;2022-09-01T16:31:19;6.50;;;6.10;;
1346;SDS011;667;48.796;9.480;2022-09-01T16:33:53;6.30;;;5.80;;
1346;SDS011;667;48.796;9.480;2022-09-01T16:39:00;5.93;;;5.50;;
1346;SDS011;667;48.796;9.480;2022-09-01T16:50:07;6.10;;;5.70;;
1346;SDS011;667;48.796;9.480;2022-09-01T16:56:06;6.10;;;5.60;;
1346;SDS011;667;48.796;9.480;2022-09-01T17:06:35;5.80;;;5.40;;
1346;SDS011;667;48.796;9.480;2022-09-01T17:14:11;6.30;;;5.80;;
1346;SDS011;667;48.796;9.480;2022-09-01T17:16:46;7.10;;;5.10;;
1346;SDS011;667;48.796;9.480;2022-09-01T17:19:16;5.03;;;4.67;;
1346;SDS011;667;48.796;9.480;2022-09-01T17:21:44;5.10;;;4.60;;
1346;SDS011;667;48.796;9.480;2022-09-01T17:26:59;5.30;;;4.90;;
1346;SDS011;667;48.796;9.480;2022-09-01T17:29:38;5.93;;;5.53;;
1346;SDS011;667;48.796;9.480;2022-09-01T17:37:52;5.17;;;4.77;;
1346;SDS011;667;48.796;9.480;2022-09-01T17:40:26;5.60;;;5.13;;
1346;SDS011;667;48.796;9.480;2022-09-01T17:50:26;4.67;;;4.30;;
1346;SDS011;667;48.796;9.480;2022-09-01T18:06:39;5.97;;;5.57;;
1346;SDS011;667;48.796;9.480;2022-09-01T18:09:08;6.63;;;6.03;;
1346;SDS011;667;48.796;9.480;2022-09-01T18:11:39;5.70;;;5.40;;